createdAt,value
2022-12-31T00:00:38.560Z,8.97
2022-12-31T00:03:07.347Z,8.99
2022-12-31T00:05:38.097Z,8.99
2022-12-31T00:08:07.756Z,9.01
2022-12-31T00:10:41.341Z,9.00
2022-12-31T00:13:09.603Z,9.01
2022-12-31T00:15:37.672Z,9.03
2022-12-31T00:18:06.031Z,9.07
2022-12-31T00:20:34.169Z,9.09
2022-12-31T00:23:02.061Z,9.14
2022-12-31T00:25:31.326Z,9.09
2022-12-31T00:27:59.202Z,9.06
2022-12-31T00:30:27.048Z,9.12
2022-12-31T00:32:54.847Z,9.06
2022-12-31T00:35:22.729Z,9.09
2022-12-31T00:37:52.770Z,9.07
2022-12-31T00:40:20.668Z,9.09
2022-12-31T00:42:49.942Z,9.11
2022-12-31T00:45:18.487Z,9.15
2022-12-31T00:47:46.488Z,9.20
2022-12-31T00:50:14.831Z,9.22
2022-12-31T00:52:43.046Z,9.22
2022-12-31T00:55:11.105Z,9.23
2022-12-31T00:57:39.364Z,9.20
2022-12-31T01:00:10.414Z,9.26
2022-12-31T01:02:38.838Z,9.23
2022-12-31T01:05:08.650Z,9.30
2022-12-31T01:07:38.727Z,9.33
2022-12-31T01:10:07.679Z,9.32
2022-12-31T01:12:35.590Z,9.37
2022-12-31T01:15:03.905Z,9.41
2022-12-31T01:17:33.128Z,9.40
2022-12-31T01:20:01.537Z,9.39
2022-12-31T01:22:29.377Z,9.42
2022-12-31T01:24:57.236Z,9.44
2022-12-31T01:27:25.592Z,9.51
2022-12-31T01:29:53.488Z,9.51
2022-12-31T01:32:21.360Z,9.54
2022-12-31T01:34:50.585Z,9.58
2022-12-31T01:37:18.491Z,9.54
2022-12-31T01:39:46.323Z,9.51
2022-12-31T01:42:14.542Z,9.58
2022-12-31T01:44:51.089Z,9.64
2022-12-31T01:47:36.871Z,9.71
2022-12-31T01:50:13.199Z,9.64
2022-12-31T01:52:45.943Z,9.70
2022-12-31T01:55:19.449Z,9.75
2022-12-31T01:57:51.815Z,9.81
2022-12-31T02:00:20.755Z,9.85
2022-12-31T02:02:48.745Z,9.83
2022-12-31T02:05:26.048Z,9.87
2022-12-31T02:07:55.854Z,9.88
2022-12-31T02:10:23.881Z,10.00
2022-12-31T02:12:53.192Z,9.97
2022-12-31T02:15:33.998Z,10.09
2022-12-31T02:18:12.389Z,10.02
2022-12-31T02:21:03.209Z,10.07
2022-12-31T02:23:53.786Z,10.07
2022-12-31T02:27:00.111Z,9.96
2022-12-31T02:29:55.046Z,10.03
2022-12-31T02:32:30.701Z,10.04
2022-12-31T02:35:06.715Z,10.12
2022-12-31T02:37:39.028Z,10.10
2022-12-31T02:40:11.098Z,10.08
2022-12-31T02:42:39.332Z,10.08
2022-12-31T02:45:13.412Z,10.12
2022-12-31T02:47:58.692Z,10.11
2022-12-31T02:50:55.315Z,10.16
2022-12-31T02:53:41.770Z,10.07
2022-12-31T02:56:23.241Z,10.13
2022-12-31T02:59:20.731Z,10.15
2022-12-31T03:02:11.169Z,10.17
2022-12-31T03:04:40.629Z,10.17
2022-12-31T03:07:11.147Z,10.15
2022-12-31T03:09:40.537Z,10.09
2022-12-31T03:12:31.784Z,10.10
2022-12-31T03:14:59.868Z,10.11
2022-12-31T03:17:29.157Z,10.03
2022-12-31T03:20:15.098Z,10.01
2022-12-31T03:22:44.658Z,10.03
2022-12-31T03:25:33.664Z,10.04
2022-12-31T03:28:02.878Z,10.00
2022-12-31T03:30:32.867Z,10.00
2022-12-31T03:35:50.934Z,9.81
2022-12-31T03:38:20.138Z,9.85
2022-12-31T03:40:51.323Z,9.80
2022-12-31T03:43:20.207Z,9.68
2022-12-31T03:45:51.339Z,9.69
2022-12-31T03:51:10.708Z,9.61
2022-12-31T03:53:38.625Z,9.66
2022-12-31T03:56:06.772Z,9.62
2022-12-31T03:58:34.588Z,9.57
2022-12-31T04:01:02.939Z,9.61
2022-12-31T04:03:35.240Z,9.62
2022-12-31T04:06:03.532Z,9.58
2022-12-31T04:08:31.420Z,9.53
2022-12-31T04:10:59.698Z,9.53
2022-12-31T04:13:27.595Z,9.55
2022-12-31T04:15:55.430Z,9.58
2022-12-31T04:18:23.390Z,9.62
2022-12-31T04:20:52.658Z,9.56
2022-12-31T04:23:21.166Z,9.69
2022-12-31T04:25:49.033Z,9.66
2022-12-31T04:28:17.455Z,9.72
2022-12-31T04:30:45.309Z,9.71
2022-12-31T04:33:13.637Z,9.77
2022-12-31T04:35:41.525Z,9.83
2022-12-31T04:38:11.417Z,9.80
2022-12-31T04:40:59.956Z,9.84
2022-12-31T04:43:28.099Z,9.88
2022-12-31T04:45:56.015Z,9.89
2022-12-31T04:48:23.883Z,9.89
2022-12-31T04:50:52.158Z,9.93
2022-12-31T04:53:21.409Z,9.92
2022-12-31T04:55:49.671Z,9.98
2022-12-31T04:58:18.121Z,10.04
2022-12-31T05:00:49.786Z,10.07
2022-12-31T05:03:18.077Z,10.13
2022-12-31T05:05:46.053Z,10.21
2022-12-31T05:08:15.477Z,10.21
2022-12-31T05:10:47.153Z,10.26
2022-12-31T05:13:16.114Z,10.28
2022-12-31T05:15:44.154Z,10.34
2022-12-31T05:18:12.401Z,10.32
2022-12-31T05:20:46.715Z,10.33
2022-12-31T05:23:14.770Z,10.34
2022-12-31T05:25:46.964Z,10.36
2022-12-31T05:28:16.569Z,10.47
2022-12-31T05:30:45.672Z,10.47
2022-12-31T05:33:13.538Z,10.52
2022-12-31T05:35:41.383Z,10.57
2022-12-31T05:38:09.508Z,10.53
2022-12-31T05:40:37.394Z,10.64
2022-12-31T05:43:08.889Z,10.64
2022-12-31T05:45:37.167Z,10.49
2022-12-31T05:48:06.007Z,10.61
2022-12-31T05:50:33.940Z,10.59
2022-12-31T05:53:02.220Z,10.54
2022-12-31T05:55:30.079Z,10.55
2022-12-31T05:57:58.232Z,10.62
2022-12-31T06:00:27.635Z,10.63
2022-12-31T06:02:55.562Z,10.63
2022-12-31T06:05:26.277Z,10.62
2022-12-31T06:07:54.943Z,10.66
2022-12-31T06:10:22.859Z,10.77
2022-12-31T06:12:51.156Z,10.75
2022-12-31T06:15:19.168Z,10.82
2022-12-31T06:17:48.445Z,10.83
2022-12-31T06:20:16.475Z,10.84
2022-12-31T06:22:44.360Z,10.91
2022-12-31T06:25:12.321Z,11.01
2022-12-31T06:27:40.181Z,10.99
2022-12-31T06:30:09.607Z,11.13
2022-12-31T06:32:37.435Z,11.14
2022-12-31T06:35:08.380Z,11.11
2022-12-31T06:37:36.410Z,11.15
2022-12-31T06:40:04.775Z,11.21
2022-12-31T06:42:32.746Z,11.16
2022-12-31T06:45:00.634Z,11.24
2022-12-31T06:47:28.929Z,11.24
2022-12-31T06:49:56.784Z,11.20
2022-12-31T06:52:26.440Z,11.28
2022-12-31T06:54:54.854Z,11.24
2022-12-31T06:57:23.791Z,11.17
2022-12-31T06:59:52.353Z,11.10
2022-12-31T07:02:45.543Z,11.02
2022-12-31T07:05:40.396Z,11.04
2022-12-31T07:08:26.711Z,10.99
2022-12-31T07:11:05.559Z,11.10
2022-12-31T07:14:00.370Z,11.04
2022-12-31T07:16:39.435Z,11.09
2022-12-31T07:19:23.467Z,10.99
2022-12-31T07:21:55.324Z,10.99
2022-12-31T07:24:25.652Z,10.97
2022-12-31T07:27:11.991Z,10.98
2022-12-31T07:29:58.782Z,11.02
2022-12-31T07:32:51.704Z,11.07
2022-12-31T07:35:35.222Z,11.12
2022-12-31T07:38:16.061Z,11.04
2022-12-31T07:41:07.336Z,11.04
2022-12-31T07:43:53.645Z,11.04
2022-12-31T07:46:32.262Z,11.04
2022-12-31T07:49:01.124Z,11.00
2022-12-31T07:51:30.117Z,11.00
2022-12-31T07:53:57.956Z,11.07
2022-12-31T07:56:27.369Z,11.09
2022-12-31T07:59:08.468Z,11.11
2022-12-31T08:01:50.808Z,11.12
2022-12-31T08:04:29.522Z,11.13
2022-12-31T08:07:06.254Z,11.17
2022-12-31T08:09:46.110Z,11.12
2022-12-31T08:12:15.934Z,11.13
2022-12-31T08:14:48.145Z,11.18
2022-12-31T08:17:19.293Z,11.20
2022-12-31T08:19:48.043Z,11.15
2022-12-31T08:22:42.698Z,11.22
2022-12-31T08:25:28.569Z,11.24
2022-12-31T08:28:23.041Z,11.23
2022-12-31T08:31:00.678Z,11.22
2022-12-31T08:33:37.092Z,11.30
2022-12-31T08:36:18.382Z,11.29
2022-12-31T08:38:57.270Z,11.33
2022-12-31T08:41:31.386Z,11.35
2022-12-31T08:44:12.297Z,11.48
2022-12-31T08:46:50.848Z,11.44
2022-12-31T08:49:19.215Z,11.54
2022-12-31T08:51:48.301Z,11.59
2022-12-31T08:54:16.646Z,11.63
2022-12-31T08:56:53.134Z,11.62
2022-12-31T08:59:37.718Z,11.57
2022-12-31T09:02:47.845Z,11.67
2022-12-31T09:05:23.788Z,11.74
2022-12-31T09:08:09.551Z,11.80
2022-12-31T09:10:48.407Z,11.83
2022-12-31T09:13:26.058Z,11.97
2022-12-31T09:16:09.015Z,11.93
2022-12-31T09:18:42.756Z,11.89
2022-12-31T09:21:12.130Z,11.93
2022-12-31T09:23:46.609Z,11.95
2022-12-31T09:26:35.170Z,11.98
2022-12-31T09:29:18.975Z,12.00
2022-12-31T09:31:59.035Z,12.06
2022-12-31T09:34:39.915Z,12.07
2022-12-31T09:37:17.891Z,12.11
2022-12-31T09:39:48.736Z,12.16
2022-12-31T09:42:59.956Z,12.27
2022-12-31T09:45:58.601Z,12.27
2022-12-31T09:49:02.556Z,12.33
2022-12-31T09:51:48.872Z,12.30
2022-12-31T09:54:31.173Z,12.40
2022-12-31T09:57:22.100Z,12.39
2022-12-31T10:00:08.512Z,12.43
2022-12-31T10:03:16.468Z,12.42
2022-12-31T10:06:02.904Z,12.43
2022-12-31T10:08:57.576Z,12.50
2022-12-31T10:11:42.643Z,12.62
2022-12-31T10:14:35.778Z,12.65
2022-12-31T10:17:21.225Z,12.63
2022-12-31T10:20:08.444Z,12.62
2022-12-31T10:23:06.560Z,12.65
2022-12-31T10:26:06.377Z,12.71
2022-12-31T10:28:50.441Z,12.80
2022-12-31T10:31:41.179Z,12.86
2022-12-31T10:34:17.181Z,12.89
2022-12-31T10:36:56.001Z,12.98
2022-12-31T10:39:39.052Z,12.92
2022-12-31T10:42:54.912Z,12.92
2022-12-31T10:45:53.251Z,12.96
2022-12-31T10:48:59.214Z,12.97
2022-12-31T10:52:11.815Z,13.01
2022-12-31T10:55:09.782Z,13.09
2022-12-31T10:58:14.386Z,13.22
2022-12-31T11:00:53.463Z,13.32
2022-12-31T11:04:00.204Z,13.30
2022-12-31T11:07:07.733Z,13.31
2022-12-31T11:10:28.417Z,13.39
2022-12-31T11:13:21.695Z,13.51
2022-12-31T11:16:07.585Z,13.58
2022-12-31T11:18:49.956Z,13.61
2022-12-31T11:21:34.212Z,13.75
2022-12-31T11:24:15.001Z,13.79
2022-12-31T11:27:11.810Z,13.79
2022-12-31T11:30:00.975Z,13.84
2022-12-31T11:32:48.347Z,13.81
2022-12-31T11:35:46.084Z,13.92
2022-12-31T11:38:25.961Z,14.01
2022-12-31T11:41:06.816Z,14.09
2022-12-31T11:43:48.099Z,14.26
2022-12-31T11:46:55.041Z,14.41
2022-12-31T11:49:44.806Z,14.41
2022-12-31T11:52:34.031Z,14.52
2022-12-31T11:55:24.268Z,14.53
2022-12-31T11:57:53.850Z,14.61
2022-12-31T12:00:24.789Z,14.59
2022-12-31T12:03:04.931Z,14.53
2022-12-31T12:05:37.006Z,14.62
2022-12-31T12:08:04.911Z,14.57
2022-12-31T12:10:42.362Z,14.53
2022-12-31T12:13:20.267Z,14.53
2022-12-31T12:15:51.655Z,14.42
2022-12-31T12:18:30.829Z,14.39
2022-12-31T12:21:09.818Z,14.42
2022-12-31T12:23:38.611Z,14.41
2022-12-31T12:26:08.256Z,14.48
2022-12-31T12:28:48.032Z,14.62
2022-12-31T12:31:22.303Z,14.60
2022-12-31T12:33:52.616Z,14.58
2022-12-31T12:36:23.082Z,14.54
2022-12-31T12:39:05.837Z,14.60
2022-12-31T12:41:34.174Z,14.58
2022-12-31T12:44:10.756Z,14.54
2022-12-31T12:46:48.183Z,14.64
2022-12-31T12:49:24.685Z,14.57
2022-12-31T12:52:10.489Z,14.51
2022-12-31T12:55:00.861Z,14.41
2022-12-31T12:57:39.248Z,14.43
2022-12-31T13:00:18.633Z,14.41
2022-12-31T13:03:17.244Z,14.47
2022-12-31T13:06:05.912Z,14.36
2022-12-31T13:09:00.164Z,14.30
2022-12-31T13:11:41.206Z,14.35
2022-12-31T13:14:27.448Z,14.33
2022-12-31T13:17:05.473Z,14.28
2022-12-31T13:19:44.780Z,14.25
2022-12-31T13:22:21.268Z,14.23
2022-12-31T13:25:03.853Z,14.23
2022-12-31T13:27:38.426Z,14.18
2022-12-31T13:30:18.071Z,14.13
2022-12-31T13:32:59.529Z,14.15
2022-12-31T13:35:32.095Z,14.11
2022-12-31T13:38:08.895Z,14.10
2022-12-31T13:40:48.123Z,14.08
2022-12-31T13:43:23.298Z,14.08
2022-12-31T13:46:04.664Z,14.07
2022-12-31T13:48:38.481Z,14.01
2022-12-31T13:51:15.297Z,13.95
2022-12-31T13:53:52.141Z,13.92
2022-12-31T13:56:29.086Z,13.90
2022-12-31T13:59:06.122Z,13.91
2022-12-31T14:01:39.916Z,13.81
2022-12-31T14:04:16.174Z,13.78
2022-12-31T14:06:52.070Z,13.82
2022-12-31T14:09:24.879Z,13.84
2022-12-31T14:12:13.515Z,13.84
2022-12-31T14:14:54.247Z,13.82
2022-12-31T14:17:33.022Z,13.73
2022-12-31T14:20:18.463Z,13.80
2022-12-31T14:22:59.592Z,13.71
2022-12-31T14:25:36.207Z,13.68
2022-12-31T14:28:08.858Z,13.67
2022-12-31T14:30:42.123Z,13.60
2022-12-31T14:33:32.256Z,13.58
2022-12-31T14:36:14.506Z,13.61
2022-12-31T14:39:10.177Z,13.54
2022-12-31T14:42:03.130Z,13.55
2022-12-31T14:44:48.396Z,13.49
2022-12-31T14:47:34.759Z,13.56
2022-12-31T14:50:12.781Z,13.54
2022-12-31T14:52:53.519Z,13.62
2022-12-31T14:55:29.661Z,13.55
2022-12-31T14:58:28.728Z,13.45
2022-12-31T15:01:01.071Z,13.37
2022-12-31T15:03:44.774Z,13.39
2022-12-31T15:06:36.843Z,13.41
2022-12-31T15:09:20.444Z,13.42
2022-12-31T15:12:12.216Z,13.36
2022-12-31T15:15:02.449Z,13.27
2022-12-31T15:17:49.358Z,13.23
2022-12-31T15:20:38.056Z,13.22
2022-12-31T15:23:18.511Z,13.13
2022-12-31T15:25:50.670Z,13.11
2022-12-31T15:28:33.535Z,12.98
2022-12-31T15:31:13.088Z,12.90
2022-12-31T15:34:01.020Z,12.86
2022-12-31T15:36:32.179Z,12.83
2022-12-31T15:39:37.739Z,12.80
2022-12-31T15:42:37.771Z,12.85
2022-12-31T15:45:15.920Z,12.81
2022-12-31T15:47:49.875Z,12.81
2022-12-31T15:50:24.556Z,12.78
2022-12-31T15:52:56.711Z,12.77
2022-12-31T15:55:30.270Z,12.79
2022-12-31T15:58:05.337Z,12.78
2022-12-31T16:00:58.737Z,12.76
2022-12-31T16:03:30.192Z,12.66
2022-12-31T16:06:03.395Z,12.63
2022-12-31T16:08:35.460Z,12.61
2022-12-31T16:11:06.928Z,12.65
2022-12-31T16:13:41.093Z,12.66
2022-12-31T16:16:20.462Z,12.66
2022-12-31T16:18:50.485Z,12.66
2022-12-31T16:21:30.345Z,12.60
2022-12-31T16:24:00.750Z,12.64
2022-12-31T16:26:35.555Z,12.63
2022-12-31T16:29:05.340Z,12.61
2022-12-31T16:31:34.162Z,12.56
2022-12-31T16:34:08.188Z,12.48
2022-12-31T16:36:37.478Z,12.53
2022-12-31T16:39:33.147Z,12.52
2022-12-31T16:42:20.844Z,12.53
2022-12-31T16:44:49.937Z,12.48
2022-12-31T16:47:22.430Z,12.41
2022-12-31T16:50:00.572Z,12.28
2022-12-31T16:52:35.198Z,12.18
2022-12-31T16:55:10.382Z,12.17
2022-12-31T16:57:39.506Z,12.12
2022-12-31T17:00:09.062Z,11.99
2022-12-31T17:02:40.761Z,11.98
2022-12-31T17:05:19.566Z,11.86
2022-12-31T17:07:49.069Z,11.86
2022-12-31T17:10:24.287Z,11.88
2022-12-31T17:15:46.638Z,11.76
2022-12-31T17:18:20.331Z,11.81
2022-12-31T17:20:51.036Z,11.88
2022-12-31T17:23:27.741Z,11.93
2022-12-31T17:26:00.933Z,12.00
2022-12-31T17:28:39.475Z,11.97
2022-12-31T17:31:29.981Z,11.99
2022-12-31T17:34:18.676Z,12.06
2022-12-31T17:36:59.324Z,12.00
2022-12-31T17:39:43.688Z,12.08
2022-12-31T17:42:14.159Z,12.08
2022-12-31T17:44:45.357Z,12.02
2022-12-31T17:47:14.948Z,12.03
2022-12-31T17:49:46.771Z,12.07
2022-12-31T17:52:16.819Z,12.07
2022-12-31T17:54:46.008Z,12.05
2022-12-31T17:57:27.953Z,12.04
2022-12-31T17:59:55.994Z,12.00
2022-12-31T18:02:23.928Z,11.96
2022-12-31T18:04:53.540Z,11.94
2022-12-31T18:07:21.399Z,11.91
2022-12-31T18:09:50.623Z,11.72
2022-12-31T18:12:20.440Z,11.72
2022-12-31T18:14:48.384Z,11.64
2022-12-31T18:17:17.302Z,11.62
2022-12-31T18:20:04.364Z,11.59
2022-12-31T18:22:33.143Z,11.64
2022-12-31T18:25:02.754Z,11.70
2022-12-31T18:27:32.253Z,11.52
2022-12-31T18:30:04.877Z,11.31
2022-12-31T18:32:35.946Z,11.28
2022-12-31T18:35:04.192Z,11.23
2022-12-31T18:37:36.359Z,11.21
2022-12-31T18:40:06.419Z,11.15
2022-12-31T18:42:34.713Z,11.17
2022-12-31T18:45:02.605Z,11.24
2022-12-31T18:47:37.353Z,11.24
2022-12-31T18:50:06.400Z,11.28
2022-12-31T18:52:34.273Z,11.33
2022-12-31T18:55:25.490Z,11.42
2022-12-31T18:57:53.385Z,11.31
2022-12-31T19:00:21.417Z,11.37
2022-12-31T19:02:49.773Z,11.31
2022-12-31T19:05:24.050Z,11.23
2022-12-31T19:07:51.932Z,11.21
2022-12-31T19:10:21.358Z,11.34
2022-12-31T19:12:49.632Z,11.46
2022-12-31T19:15:27.869Z,11.52
2022-12-31T19:17:55.712Z,11.42
2022-12-31T19:20:24.552Z,11.36
2022-12-31T19:22:52.581Z,11.50
2022-12-31T19:25:24.253Z,11.41
2022-12-31T19:27:52.938Z,11.46
2022-12-31T19:30:26.269Z,11.55
2022-12-31T19:32:54.804Z,11.57
2022-12-31T19:35:23.887Z,11.53
2022-12-31T19:37:53.283Z,11.61
2022-12-31T19:40:25.219Z,11.60
2022-12-31T19:42:56.073Z,11.54
2022-12-31T19:45:26.545Z,11.51
2022-12-31T19:47:56.553Z,11.60
2022-12-31T19:50:27.331Z,11.61
2022-12-31T19:52:58.606Z,11.63
2022-12-31T19:55:32.917Z,11.59
2022-12-31T19:58:00.981Z,11.51
2022-12-31T20:00:28.938Z,11.47
2022-12-31T20:02:58.384Z,11.44
2022-12-31T20:05:26.358Z,11.56
2022-12-31T20:07:54.241Z,11.47
2022-12-31T20:10:23.368Z,11.48
2022-12-31T20:12:52.592Z,11.45
2022-12-31T20:15:20.467Z,11.46
2022-12-31T20:17:48.395Z,11.33
2022-12-31T20:20:16.950Z,11.26
2022-12-31T20:22:44.856Z,11.28
2022-12-31T20:25:12.752Z,11.26
2022-12-31T20:27:40.655Z,11.23
2022-12-31T20:30:12.741Z,11.21
2022-12-31T20:32:40.601Z,11.26
2022-12-31T20:35:09.196Z,11.34
2022-12-31T20:37:37.101Z,11.25
2022-12-31T20:40:05.507Z,11.29
2022-12-31T20:42:33.353Z,11.21
2022-12-31T20:45:01.236Z,11.23
2022-12-31T20:47:30.954Z,11.31
2022-12-31T20:50:11.535Z,11.29
2022-12-31T20:52:40.055Z,11.38
2022-12-31T20:55:10.171Z,11.38
2022-12-31T20:57:38.077Z,11.42
2022-12-31T21:00:07.481Z,11.43
2022-12-31T21:02:42.044Z,11.29
2022-12-31T21:05:11.984Z,11.36
2022-12-31T21:07:40.030Z,11.28
2022-12-31T21:10:08.780Z,11.30
2022-12-31T21:12:45.216Z,11.31
2022-12-31T21:15:14.126Z,11.41
2022-12-31T21:17:44.031Z,11.33
2022-12-31T21:20:12.798Z,11.31
2022-12-31T21:22:40.951Z,11.39
2022-12-31T21:25:09.489Z,11.42
2022-12-31T21:27:37.866Z,11.41
2022-12-31T21:30:21.579Z,11.39
2022-12-31T21:32:50.821Z,11.52
2022-12-31T21:38:08.642Z,11.41
2022-12-31T21:40:36.951Z,11.38
2022-12-31T21:43:04.859Z,11.39
2022-12-31T21:45:33.276Z,11.37
2022-12-31T21:48:21.876Z,11.40
2022-12-31T21:50:52.063Z,11.55
2022-12-31T21:53:26.148Z,11.56
2022-12-31T21:56:08.971Z,11.50
2022-12-31T21:58:38.171Z,11.55
2022-12-31T22:01:25.082Z,11.64
2022-12-31T22:03:54.520Z,11.71
2022-12-31T22:06:25.139Z,11.71
2022-12-31T22:08:56.081Z,11.77
2022-12-31T22:11:27.076Z,11.81
2022-12-31T22:13:55.934Z,11.90
2022-12-31T22:16:24.343Z,11.78
2022-12-31T22:18:52.334Z,11.76
2022-12-31T22:21:23.577Z,11.69
2022-12-31T22:23:54.417Z,11.64
2022-12-31T22:26:25.350Z,11.60
2022-12-31T22:28:59.553Z,11.58
2022-12-31T22:31:31.403Z,11.58
2022-12-31T22:34:00.567Z,11.53
2022-12-31T22:36:29.900Z,11.48
2022-12-31T22:38:59.378Z,11.63
2022-12-31T22:41:29.509Z,11.61
2022-12-31T22:44:04.671Z,11.47
2022-12-31T22:46:35.742Z,11.26
2022-12-31T22:49:05.948Z,11.31
2022-12-31T22:51:54.915Z,11.17
2022-12-31T22:54:23.417Z,11.21
2022-12-31T22:56:51.635Z,11.26
2022-12-31T22:59:19.534Z,11.37
2022-12-31T23:01:48.109Z,11.26
2022-12-31T23:04:16.040Z,11.29
2022-12-31T23:06:45.745Z,11.25
2022-12-31T23:09:32.621Z,11.23
2022-12-31T23:12:00.708Z,11.29
2022-12-31T23:14:46.034Z,11.28
2022-12-31T23:17:35.518Z,11.19
2022-12-31T23:20:21.748Z,11.12
2022-12-31T23:23:08.588Z,10.96
2022-12-31T23:25:38.746Z,10.93
2022-12-31T23:28:08.648Z,10.87
2022-12-31T23:30:39.443Z,10.92
2022-12-31T23:33:08.070Z,10.93
2022-12-31T23:35:35.983Z,10.84
2022-12-31T23:38:05.296Z,10.72
2022-12-31T23:40:35.161Z,10.63
2022-12-31T23:43:04.751Z,10.80
2022-12-31T23:45:34.927Z,10.81
2022-12-31T23:48:03.280Z,10.76
2022-12-31T23:50:31.512Z,10.71
2022-12-31T23:52:59.320Z,10.59
2022-12-31T23:58:14.671Z,10.32
